sensor_id;sensor_type;location;lat;lon;timestamp;pressure;altitude;pressure_sealevel;temperature;humidity
24788;BME280;12883;52.662;5.196;2023-02-02T00:01:56;102006.28;;;8.52;100.00
24788;BME280;12883;52.662;5.196;2023-02-02T00:04:33;101982.03;;;8.31;100.00
24788;BME280;12883;52.662;5.196;2023-02-02T00:06:59;102019.88;;;8.57;100.00
24788;BME280;12883;52.662;5.196;2023-02-02T00:09:27;102015.44;;;8.57;100.00
24788;BME280;12883;52.662;5.196;2023-02-02T00:11:53;102015.44;;;8.57;100.00
24788;BME280;12883;52.662;5.196;2023-02-02T00:14:19;102021.06;;;8.62;100.00
24788;BME280;12883;52.662;5.196;2023-02-02T00:16:49;102018.75;;;8.59;100.00
24788;BME280;12883;52.662;5.196;2023-02-02T00:19:17;102027.69;;;8.58;100.00
24788;BME280;12883;52.662;5.196;2023-02-02T00:21:43;102022.38;;;8.58;100.00
24788;BME280;12883;52.662;5.196;2023-02-02T00:24:11;101967.31;;;8.28;100.00
24788;BME280;12883;52.662;5.196;2023-02-02T00:26:38;101980.56;;;8.36;100.00
24788;BME280;12883;52.662;5.196;2023-02-02T00:29:05;102029.00;;;8.62;100.00
24788;BME280;12883;52.662;5.196;2023-02-02T00:31:30;102033.69;;;8.68;100.00
24788;BME280;12883;52.662;5.196;2023-02-02T00:33:56;102039.81;;;8.69;100.00
24788;BME280;12883;52.662;5.196;2023-02-02T00:36:22;102036.97;;;8.70;100.00
24788;BME280;12883;52.662;5.196;2023-02-02T00:38:48;102018.66;;;8.69;100.00
24788;BME280;12883;52.662;5.196;2023-02-02T00:41:14;101978.31;;;8.41;100.00
24788;BME280;12883;52.662;5.196;2023-02-02T00:43:40;102024.97;;;8.76;100.00
24788;BME280;12883;52.662;5.196;2023-02-02T00:46:09;102030.06;;;8.77;100.00
24788;BME280;12883;52.662;5.196;2023-02-02T00:48:36;102022.97;;;8.78;100.00
24788;BME280;12883;52.662;5.196;2023-02-02T00:51:01;102040.66;;;8.77;100.00
24788;BME280;12883;52.662;5.196;2023-02-02T00:53:26;102030.28;;;8.84;100.00
24788;BME280;12883;52.662;5.196;2023-02-02T00:55:52;102036.41;;;8.84;100.00
24788;BME280;12883;52.662;5.196;2023-02-02T00:58:17;101977.16;;;8.44;100.00
24788;BME280;12883;52.662;5.196;2023-02-02T01:00:42;102042.72;;;8.91;100.00
24788;BME280;12883;52.662;5.196;2023-02-02T01:03:08;102031.09;;;8.84;100.00
24788;BME280;12883;52.662;5.196;2023-02-02T01:05:34;102025.66;;;8.86;100.00
24788;BME280;12883;52.662;5.196;2023-02-02T01:07:59;102033.31;;;8.89;100.00
24788;BME280;12883;52.662;5.196;2023-02-02T01:10:25;102038.41;;;8.90;100.00
24788;BME280;12883;52.662;5.196;2023-02-02T01:12:50;102029.50;;;8.91;100.00
24788;BME280;12883;52.662;5.196;2023-02-02T01:15:15;102026.03;;;8.91;100.00
24788;BME280;12883;52.662;5.196;2023-02-02T01:17:41;101981.91;;;8.66;100.00
24788;BME280;12883;52.662;5.196;2023-02-02T01:20:09;102033.63;;;8.94;100.00
24788;BME280;12883;52.662;5.196;2023-02-02T01:22:35;102031.84;;;8.94;100.00
24788;BME280;12883;52.662;5.196;2023-02-02T01:25:03;102030.50;;;8.98;100.00
24788;BME280;12883;52.662;5.196;2023-02-02T01:27:29;102033.81;;;8.92;100.00
24788;BME280;12883;52.662;5.196;2023-02-02T01:29:54;102026.38;;;8.96;100.00
24788;BME280;12883;52.662;5.196;2023-02-02T01:32:19;102033.34;;;8.97;100.00
24788;BME280;12883;52.662;5.196;2023-02-02T01:34:45;102028.34;;;8.94;100.00
24788;BME280;12883;52.662;5.196;2023-02-02T01:37:10;102017.94;;;8.92;100.00
24788;BME280;12883;52.662;5.196;2023-02-02T01:39:36;102034.84;;;8.99;100.00
24788;BME280;12883;52.662;5.196;2023-02-02T01:42:01;102009.38;;;8.73;100.00
24788;BME280;12883;52.662;5.196;2023-02-02T01:47:23;102025.56;;;9.03;100.00
24788;BME280;12883;52.662;5.196;2023-02-02T01:49:50;102022.41;;;9.00;100.00
24788;BME280;12883;52.662;5.196;2023-02-02T01:52:17;102025.44;;;9.05;100.00
24788;BME280;12883;52.662;5.196;2023-02-02T01:54:50;102028.88;;;9.05;100.00
24788;BME280;12883;52.662;5.196;2023-02-02T01:57:25;102016.81;;;9.03;100.00
24788;BME280;12883;52.662;5.196;2023-02-02T01:59:53;102025.94;;;9.08;100.00
24788;BME280;12883;52.662;5.196;2023-02-02T02:02:20;102019.28;;;9.04;100.00
24788;BME280;12883;52.662;5.196;2023-02-02T02:04:48;102024.78;;;9.11;100.00
24788;BME280;12883;52.662;5.196;2023-02-02T02:07:14;102020.63;;;9.08;100.00
24788;BME280;12883;52.662;5.196;2023-02-02T02:09:39;102014.69;;;9.06;100.00
24788;BME280;12883;52.662;5.196;2023-02-02T02:12:10;101945.03;;;8.64;100.00
24788;BME280;12883;52.662;5.196;2023-02-02T02:14:38;102011.69;;;9.01;100.00
24788;BME280;12883;52.662;5.196;2023-02-02T02:23:39;102017.28;;;8.98;100.00
24788;BME280;12883;52.662;5.196;2023-02-02T02:34:51;102014.31;;;9.01;100.00
24788;BME280;12883;52.662;5.196;2023-02-02T02:42:37;102026.53;;;8.94;100.00
24788;BME280;12883;52.662;5.196;2023-02-02T02:45:04;102024.25;;;8.99;100.00
24788;BME280;12883;52.662;5.196;2023-02-02T02:47:32;102027.34;;;8.95;100.00
24788;BME280;12883;52.662;5.196;2023-02-02T02:49:58;102024.88;;;8.93;100.00
24788;BME280;12883;52.662;5.196;2023-02-02T02:52:24;102026.16;;;8.81;100.00
24788;BME280;12883;52.662;5.196;2023-02-02T02:54:52;102027.94;;;8.81;100.00
24788;BME280;12883;52.662;5.196;2023-02-02T03:00:20;102020.53;;;8.84;100.00
24788;BME280;12883;52.662;5.196;2023-02-02T03:08:12;102027.72;;;8.66;100.00
24788;BME280;12883;52.662;5.196;2023-02-02T03:10:43;102021.44;;;8.67;100.00
24788;BME280;12883;52.662;5.196;2023-02-02T03:13:11;102026.16;;;8.56;100.00
24788;BME280;12883;52.662;5.196;2023-02-02T03:15:41;102022.44;;;8.66;100.00
24788;BME280;12883;52.662;5.196;2023-02-02T03:18:06;102012.38;;;8.70;100.00
24788;BME280;12883;52.662;5.196;2023-02-02T03:20:32;102008.91;;;8.77;100.00
24788;BME280;12883;52.662;5.196;2023-02-02T03:22:58;102005.31;;;8.78;100.00
24788;BME280;12883;52.662;5.196;2023-02-02T03:25:23;102010.91;;;8.75;100.00
24788;BME280;12883;52.662;5.196;2023-02-02T03:27:49;102007.50;;;8.91;100.00
24788;BME280;12883;52.662;5.196;2023-02-02T03:30:15;101998.22;;;8.95;100.00
24788;BME280;12883;52.662;5.196;2023-02-02T03:32:40;102004.03;;;8.98;100.00
24788;BME280;12883;52.662;5.196;2023-02-02T03:35:06;101997.28;;;8.96;100.00
24788;BME280;12883;52.662;5.196;2023-02-02T03:37:31;102007.19;;;9.02;100.00
24788;BME280;12883;52.662;5.196;2023-02-02T03:39:57;101991.50;;;9.00;100.00
24788;BME280;12883;52.662;5.196;2023-02-02T03:42:22;101987.34;;;8.98;100.00
24788;BME280;12883;52.662;5.196;2023-02-02T03:44:47;101985.22;;;9.01;100.00
24788;BME280;12883;52.662;5.196;2023-02-02T03:47:13;101990.34;;;9.03;100.00
24788;BME280;12883;52.662;5.196;2023-02-02T03:49:38;101985.88;;;9.03;100.00
24788;BME280;12883;52.662;5.196;2023-02-02T03:52:04;101998.31;;;9.11;100.00
24788;BME280;12883;52.662;5.196;2023-02-02T03:54:30;101985.00;;;8.95;100.00
24788;BME280;12883;52.662;5.196;2023-02-02T03:56:55;101999.75;;;9.05;100.00
24788;BME280;12883;52.662;5.196;2023-02-02T03:59:21;101996.84;;;9.16;100.00
24788;BME280;12883;52.662;5.196;2023-02-02T04:01:46;102000.97;;;9.11;100.00
24788;BME280;12883;52.662;5.196;2023-02-02T04:04:11;102004.28;;;9.21;100.00
24788;BME280;12883;52.662;5.196;2023-02-02T04:06:37;102004.63;;;9.18;100.00
24788;BME280;12883;52.662;5.196;2023-02-02T04:09:02;102005.28;;;9.20;100.00
24788;BME280;12883;52.662;5.196;2023-02-02T04:11:27;102009.72;;;9.11;100.00
24788;BME280;12883;52.662;5.196;2023-02-02T04:13:53;102001.78;;;9.19;100.00
24788;BME280;12883;52.662;5.196;2023-02-02T04:16:18;102012.09;;;9.22;100.00
24788;BME280;12883;52.662;5.196;2023-02-02T04:18:44;102000.13;;;9.18;100.00
24788;BME280;12883;52.662;5.196;2023-02-02T04:21:09;102015.72;;;9.21;100.00
24788;BME280;12883;52.662;5.196;2023-02-02T04:23:35;102013.41;;;9.26;100.00
24788;BME280;12883;52.662;5.196;2023-02-02T04:26:00;101948.38;;;8.74;100.00
24788;BME280;12883;52.662;5.196;2023-02-02T04:28:27;102004.41;;;9.11;100.00
24788;BME280;12883;52.662;5.196;2023-02-02T04:30:53;101947.25;;;8.85;100.00
24788;BME280;12883;52.662;5.196;2023-02-02T04:33:20;102013.88;;;9.22;100.00
24788;BME280;12883;52.662;5.196;2023-02-02T04:35:45;102012.38;;;9.19;100.00
24788;BME280;12883;52.662;5.196;2023-02-02T04:38:11;102017.19;;;9.16;100.00
24788;BME280;12883;52.662;5.196;2023-02-02T04:40:38;102020.66;;;9.16;100.00
24788;BME280;12883;52.662;5.196;2023-02-02T04:43:04;102010.41;;;9.13;100.00
24788;BME280;12883;52.662;5.196;2023-02-02T04:45:29;102003.16;;;9.23;100.00
24788;BME280;12883;52.662;5.196;2023-02-02T04:47:54;102012.38;;;9.19;100.00
24788;BME280;12883;52.662;5.196;2023-02-02T04:50:20;102011.94;;;9.24;100.00
24788;BME280;12883;52.662;5.196;2023-02-02T04:52:45;101981.22;;;8.97;100.00
24788;BME280;12883;52.662;5.196;2023-02-02T04:55:10;102016.38;;;9.15;100.00
24788;BME280;12883;52.662;5.196;2023-02-02T04:57:36;101993.97;;;9.02;100.00
24788;BME280;12883;52.662;5.196;2023-02-02T05:00:02;102021.03;;;9.21;100.00
24788;BME280;12883;52.662;5.196;2023-02-02T05:02:28;102015.03;;;9.19;100.00
24788;BME280;12883;52.662;5.196;2023-02-02T05:04:53;102014.06;;;9.20;100.00
24788;BME280;12883;52.662;5.196;2023-02-02T05:07:18;102029.13;;;9.28;100.00
24788;BME280;12883;52.662;5.196;2023-02-02T05:09:44;102017.38;;;9.22;100.00
24788;BME280;12883;52.662;5.196;2023-02-02T05:12:09;102019.69;;;9.25;100.00
24788;BME280;12883;52.662;5.196;2023-02-02T05:14:34;102031.28;;;9.24;100.00
24788;BME280;12883;52.662;5.196;2023-02-02T05:17:00;102032.28;;;9.23;100.00
24788;BME280;12883;52.662;5.196;2023-02-02T05:19:25;102031.78;;;9.28;100.00
24788;BME280;12883;52.662;5.196;2023-02-02T05:21:50;102029.97;;;9.20;100.00
24788;BME280;12883;52.662;5.196;2023-02-02T05:24:16;102027.25;;;9.12;100.00
24788;BME280;12883;52.662;5.196;2023-02-02T05:26:41;102032.25;;;9.15;100.00
24788;BME280;12883;52.662;5.196;2023-02-02T05:29:06;102003.09;;;9.07;100.00
24788;BME280;12883;52.662;5.196;2023-02-02T05:31:34;102018.69;;;9.18;100.00
24788;BME280;12883;52.662;5.196;2023-02-02T05:33:59;102026.66;;;9.26;100.00
24788;BME280;12883;52.662;5.196;2023-02-02T05:36:25;102036.28;;;9.27;100.00
24788;BME280;12883;52.662;5.196;2023-02-02T05:38:50;102039.25;;;9.32;100.00
24788;BME280;12883;52.662;5.196;2023-02-02T05:41:15;102030.63;;;9.30;100.00
24788;BME280;12883;52.662;5.196;2023-02-02T05:43:41;102037.94;;;9.28;100.00
24788;BME280;12883;52.662;5.196;2023-02-02T05:46:06;102041.56;;;9.27;100.00
24788;BME280;12883;52.662;5.196;2023-02-02T05:48:31;102038.22;;;9.25;100.00
24788;BME280;12883;52.662;5.196;2023-02-02T05:51:09;102036.28;;;9.27;100.00
24788;BME280;12883;52.662;5.196;2023-02-02T05:53:35;102042.88;;;9.31;100.00
24788;BME280;12883;52.662;5.196;2023-02-02T05:56:01;101980.19;;;8.90;100.00
24788;BME280;12883;52.662;5.196;2023-02-02T05:58:26;102037.44;;;9.33;100.00
24788;BME280;12883;52.662;5.196;2023-02-02T06:00:52;102037.28;;;9.34;100.00
24788;BME280;12883;52.662;5.196;2023-02-02T06:03:17;102039.09;;;9.34;100.00
24788;BME280;12883;52.662;5.196;2023-02-02T06:05:43;102046.56;;;9.38;100.00
24788;BME280;12883;52.662;5.196;2023-02-02T06:08:08;102047.38;;;9.31;100.00
24788;BME280;12883;52.662;5.196;2023-02-02T06:10:34;102049.50;;;9.27;100.00
24788;BME280;12883;52.662;5.196;2023-02-02T06:12:59;102056.78;;;9.33;100.00
24788;BME280;12883;52.662;5.196;2023-02-02T06:15:24;102054.84;;;9.35;100.00
24788;BME280;12883;52.662;5.196;2023-02-02T06:17:51;102053.47;;;9.31;100.00
24788;BME280;12883;52.662;5.196;2023-02-02T06:20:17;101990.66;;;9.00;100.00
24788;BME280;12883;52.662;5.196;2023-02-02T06:22:42;102065.44;;;9.35;100.00
24788;BME280;12883;52.662;5.196;2023-02-02T06:25:08;102059.13;;;9.36;100.00
24788;BME280;12883;52.662;5.196;2023-02-02T06:27:34;102054.31;;;9.32;100.00
24788;BME280;12883;52.662;5.196;2023-02-02T06:29:59;102068.09;;;9.35;100.00
24788;BME280;12883;52.662;5.196;2023-02-02T06:32:24;102057.16;;;9.38;100.00
24788;BME280;12883;52.662;5.196;2023-02-02T06:34:52;102069.06;;;9.34;100.00
24788;BME280;12883;52.662;5.196;2023-02-02T06:37:17;102071.88;;;9.33;100.00
24788;BME280;12883;52.662;5.196;2023-02-02T06:39:43;102077.03;;;9.42;100.00
24788;BME280;12883;52.662;5.196;2023-02-02T06:42:08;102082.34;;;9.42;100.00
24788;BME280;12883;52.662;5.196;2023-02-02T06:44:34;102068.88;;;9.36;100.00
24788;BME280;12883;52.662;5.196;2023-02-02T06:46:59;102075.84;;;9.37;100.00
24788;BME280;12883;52.662;5.196;2023-02-02T06:49:24;102079.66;;;9.34;100.00
24788;BME280;12883;52.662;5.196;2023-02-02T06:51:50;102072.88;;;9.40;100.00
24788;BME280;12883;52.662;5.196;2023-02-02T06:54:15;102084.97;;;9.34;100.00
24788;BME280;12883;52.662;5.196;2023-02-02T06:56:41;102079.66;;;9.34;100.00
24788;BME280;12883;52.662;5.196;2023-02-02T06:59:06;102075.69;;;9.38;100.00
24788;BME280;12883;52.662;5.196;2023-02-02T07:01:31;102074.03;;;9.37;100.00
24788;BME280;12883;52.662;5.196;2023-02-02T07:03:57;102087.28;;;9.37;100.00
24788;BME280;12883;52.662;5.196;2023-02-02T07:06:26;102091.06;;;9.35;100.00
24788;BME280;12883;52.662;5.196;2023-02-02T07:08:52;102088.78;;;9.40;100.00
24788;BME280;12883;52.662;5.196;2023-02-02T07:11:19;102054.75;;;9.19;100.00
24788;BME280;12883;52.662;5.196;2023-02-02T07:13:45;102105.81;;;9.37;100.00
24788;BME280;12883;52.662;5.196;2023-02-02T07:16:12;102106.47;;;9.39;100.00
24788;BME280;12883;52.662;5.196;2023-02-02T07:18:38;102111.97;;;9.38;100.00
24788;BME280;12883;52.662;5.196;2023-02-02T07:21:04;102105.53;;;9.40;100.00
24788;BME280;12883;52.662;5.196;2023-02-02T07:23:31;102104.69;;;9.40;100.00
24788;BME280;12883;52.662;5.196;2023-02-02T07:26:01;102071.63;;;9.18;100.00
24788;BME280;12883;52.662;5.196;2023-02-02T07:28:27;102124.88;;;9.41;100.00
24788;BME280;12883;52.662;5.196;2023-02-02T07:30:53;102089.84;;;9.13;100.00
24788;BME280;12883;52.662;5.196;2023-02-02T07:33:18;102121.72;;;9.37;100.00
24788;BME280;12883;52.662;5.196;2023-02-02T07:35:43;102126.16;;;9.37;100.00
24788;BME280;12883;52.662;5.196;2023-02-02T07:38:09;102105.16;;;9.35;100.00
24788;BME280;12883;52.662;5.196;2023-02-02T07:40:34;102126.72;;;9.40;100.00
24788;BME280;12883;52.662;5.196;2023-02-02T07:42:59;102135.00;;;9.45;100.00
24788;BME280;12883;52.662;5.196;2023-02-02T07:45:26;102129.66;;;9.37;100.00
24788;BME280;12883;52.662;5.196;2023-02-02T07:47:59;102137.31;;;9.40;100.00
24788;BME280;12883;52.662;5.196;2023-02-02T07:50:26;102142.59;;;9.40;100.00
24788;BME280;12883;52.662;5.196;2023-02-02T07:52:52;102138.97;;;9.41;100.00
24788;BME280;12883;52.662;5.196;2023-02-02T07:55:18;102146.84;;;9.33;100.00
24788;BME280;12883;52.662;5.196;2023-02-02T07:57:44;102118.72;;;9.32;100.00
24788;BME280;12883;52.662;5.196;2023-02-02T08:00:09;102138.97;;;9.41;100.00
24788;BME280;12883;52.662;5.196;2023-02-02T08:02:35;102133.97;;;9.38;100.00
24788;BME280;12883;52.662;5.196;2023-02-02T08:05:00;102141.91;;;9.38;100.00
24788;BME280;12883;52.662;5.196;2023-02-02T08:07:26;102153.03;;;9.42;100.00
24788;BME280;12883;52.662;5.196;2023-02-02T08:09:51;102179.38;;;9.43;100.00
24788;BME280;12883;52.662;5.196;2023-02-02T08:12:18;102161.47;;;9.45;100.00
24788;BME280;12883;52.662;5.196;2023-02-02T08:14:45;102134.19;;;9.19;100.00
24788;BME280;12883;52.662;5.196;2023-02-02T08:17:11;102168.25;;;9.40;100.00
24788;BME280;12883;52.662;5.196;2023-02-02T08:19:36;102172.03;;;9.37;100.00
24788;BME280;12883;52.662;5.196;2023-02-02T08:22:01;102169.09;;;9.40;100.00
24788;BME280;12883;52.662;5.196;2023-02-02T08:24:27;102164.56;;;9.33;100.00
24788;BME280;12883;52.662;5.196;2023-02-02T08:26:52;102169.91;;;9.41;100.00
24788;BME280;12883;52.662;5.196;2023-02-02T08:29:17;102172.41;;;9.42;100.00
24788;BME280;12883;52.662;5.196;2023-02-02T08:31:43;102183.00;;;9.42;100.00
24788;BME280;12883;52.662;5.196;2023-02-02T08:34:10;102188.50;;;9.48;100.00
24788;BME280;12883;52.662;5.196;2023-02-02T08:36:36;102176.25;;;9.48;100.00
24788;BME280;12883;52.662;5.196;2023-02-02T08:39:07;102181.66;;;9.38;100.00
24788;BME280;12883;52.662;5.196;2023-02-02T08:41:32;102214.16;;;9.48;100.00
24788;BME280;12883;52.662;5.196;2023-02-02T08:43:58;102198.28;;;9.48;100.00
24788;BME280;12883;52.662;5.196;2023-02-02T08:46:24;102189.00;;;9.52;100.00
24788;BME280;12883;52.662;5.196;2023-02-02T08:48:49;102191.84;;;9.51;100.00
24788;BME280;12883;52.662;5.196;2023-02-02T08:51:18;102196.63;;;9.47;100.00
24788;BME280;12883;52.662;5.196;2023-02-02T08:53:44;102213.19;;;9.49;100.00
24788;BME280;12883;52.662;5.196;2023-02-02T08:56:15;102209.69;;;9.48;100.00
24788;BME280;12883;52.662;5.196;2023-02-02T08:58:55;102218.63;;;9.48;100.00
24788;BME280;12883;52.662;5.196;2023-02-02T09:01:31;102220.13;;;9.50;100.00
24788;BME280;12883;52.662;5.196;2023-02-02T09:04:07;102216.00;;;9.55;100.00
24788;BME280;12883;52.662;5.196;2023-02-02T09:06:39;102227.47;;;9.56;100.00
24788;BME280;12883;52.662;5.196;2023-02-02T09:09:06;102215.72;;;9.58;100.00
24788;BME280;12883;52.662;5.196;2023-02-02T09:11:32;102218.88;;;9.62;100.00
24788;BME280;12883;52.662;5.196;2023-02-02T09:13:58;102234.59;;;9.63;100.00
24788;BME280;12883;52.662;5.196;2023-02-02T09:16:26;102238.75;;;9.66;100.00
24788;BME280;12883;52.662;5.196;2023-02-02T09:18:52;102237.25;;;9.63;100.00
24788;BME280;12883;52.662;5.196;2023-02-02T09:21:18;102238.25;;;9.62;100.00
24788;BME280;12883;52.662;5.196;2023-02-02T09:23:45;102242.72;;;9.62;100.00
24788;BME280;12883;52.662;5.196;2023-02-02T09:26:25;102249.97;;;9.60;100.00
24788;BME280;12883;52.662;5.196;2023-02-02T09:28:56;102245.53;;;9.60;100.00
24788;BME280;12883;52.662;5.196;2023-02-02T09:31:22;102245.41;;;9.70;100.00
24788;BME280;12883;52.662;5.196;2023-02-02T09:33:48;102245.19;;;9.63;100.00
24788;BME280;12883;52.662;5.196;2023-02-02T09:36:16;102250.72;;;9.70;100.00
24788;BME280;12883;52.662;5.196;2023-02-02T09:38:42;102251.00;;;9.67;100.00
24788;BME280;12883;52.662;5.196;2023-02-02T09:44:28;102246.94;;;9.72;100.00
24788;BME280;12883;52.662;5.196;2023-02-02T09:47:20;102255.88;;;9.71;100.00
24788;BME280;12883;52.662;5.196;2023-02-02T09:55:02;102273.44;;;9.72;100.00
24788;BME280;12883;52.662;5.196;2023-02-02T09:57:35;102277.41;;;9.76;100.00
24788;BME280;12883;52.662;5.196;2023-02-02T10:00:02;102241.47;;;9.48;100.00
24788;BME280;12883;52.662;5.196;2023-02-02T10:02:36;102219.28;;;9.49;100.00
24788;BME280;12883;52.662;5.196;2023-02-02T10:05:27;102268.28;;;9.71;100.00
24788;BME280;12883;52.662;5.196;2023-02-02T10:08:00;102236.34;;;9.47;100.00
24788;BME280;12883;52.662;5.196;2023-02-02T10:10:32;102271.97;;;9.78;100.00
24788;BME280;12883;52.662;5.196;2023-02-02T10:13:14;102282.56;;;9.78;100.00
24788;BME280;12883;52.662;5.196;2023-02-02T10:15:58;102277.63;;;9.83;100.00
24788;BME280;12883;52.662;5.196;2023-02-02T10:18:45;102256.84;;;9.70;100.00
24788;BME280;12883;52.662;5.196;2023-02-02T10:21:37;102281.59;;;9.87;100.00
24788;BME280;12883;52.662;5.196;2023-02-02T10:24:15;102284.59;;;9.84;100.00
24788;BME280;12883;52.662;5.196;2023-02-02T10:26:49;102241.06;;;9.61;100.00
24788;BME280;12883;52.662;5.196;2023-02-02T10:51:31;102286.13;;;9.94;100.00
24788;BME280;12883;52.662;5.196;2023-02-02T10:53:58;102261.69;;;9.75;100.00
24788;BME280;12883;52.662;5.196;2023-02-02T10:56:39;102293.59;;;9.99;100.00
24788;BME280;12883;52.662;5.196;2023-02-02T10:59:14;102291.09;;;9.97;100.00
24788;BME280;12883;52.662;5.196;2023-02-02T11:01:42;102282.47;;;9.95;100.00
24788;BME280;12883;52.662;5.196;2023-02-02T11:04:08;102301.09;;;10.03;100.00
24788;BME280;12883;52.662;5.196;2023-02-02T11:06:54;102268.47;;;9.77;100.00
24788;BME280;12883;52.662;5.196;2023-02-02T11:09:29;102301.31;;;10.10;100.00
24788;BME280;12883;52.662;5.196;2023-02-02T11:12:24;102306.63;;;10.10;100.00
24788;BME280;12883;52.662;5.196;2023-02-02T11:14:59;102278.31;;;9.93;100.00
24788;BME280;12883;52.662;5.196;2023-02-02T11:17:29;102305.25;;;10.06;100.00
24788;BME280;12883;52.662;5.196;2023-02-02T11:19:55;102307.25;;;10.04;100.00
24788;BME280;12883;52.662;5.196;2023-02-02T11:24:56;102313.59;;;10.11;100.00
24788;BME280;12883;52.662;5.196;2023-02-02T11:27:40;102305.66;;;10.19;100.00
24788;BME280;12883;52.662;5.196;2023-02-02T11:30:31;102300.31;;;10.11;100.00
24788;BME280;12883;52.662;5.196;2023-02-02T11:32:58;102311.25;;;10.16;100.00
24788;BME280;12883;52.662;5.196;2023-02-02T11:35:25;102312.25;;;10.15;100.00
24788;BME280;12883;52.662;5.196;2023-02-02T11:38:08;102306.66;;;10.18;100.00
24788;BME280;12883;52.662;5.196;2023-02-02T11:40:39;102318.56;;;10.14;100.00
24788;BME280;12883;52.662;5.196;2023-02-02T11:43:18;102303.16;;;10.17;100.00
24788;BME280;12883;52.662;5.196;2023-02-02T11:45:46;102302.97;;;10.11;100.00
24788;BME280;12883;52.662;5.196;2023-02-02T11:48:22;102309.13;;;10.19;100.00
24788;BME280;12883;52.662;5.196;2023-02-02T11:50:51;102301.13;;;10.11;100.00
24788;BME280;12883;52.662;5.196;2023-02-02T11:53:32;102306.16;;;10.22;100.00
24788;BME280;12883;52.662;5.196;2023-02-02T11:56:02;102296.69;;;10.20;100.00
24788;BME280;12883;52.662;5.196;2023-02-02T11:58:43;102311.25;;;10.16;100.00
24788;BME280;12883;52.662;5.196;2023-02-02T12:01:22;102302.63;;;10.14;100.00
24788;BME280;12883;52.662;5.196;2023-02-02T12:03:49;102299.34;;;10.20;100.00
24788;BME280;12883;52.662;5.196;2023-02-02T12:06:19;102300.34;;;10.19;100.00
24788;BME280;12883;52.662;5.196;2023-02-02T12:08:45;102290.91;;;10.24;100.00
24788;BME280;12883;52.662;5.196;2023-02-02T12:11:16;102292.91;;;10.22;100.00
24788;BME280;12883;52.662;5.196;2023-02-02T12:13:54;102279.78;;;10.21;100.00
24788;BME280;12883;52.662;5.196;2023-02-02T12:18:59;102285.94;;;10.21;100.00
24788;BME280;12883;52.662;5.196;2023-02-02T12:21:48;102289.41;;;10.22;100.00
24788;BME280;12883;52.662;5.196;2023-02-02T12:30:01;102292.09;;;10.30;100.00
24788;BME280;12883;52.662;5.196;2023-02-02T12:32:53;102290.25;;;10.22;100.00
24788;BME280;12883;52.662;5.196;2023-02-02T12:35:52;102283.44;;;10.20;100.00
24788;BME280;12883;52.662;5.196;2023-02-02T12:41:09;102290.09;;;10.24;100.00
24788;BME280;12883;52.662;5.196;2023-02-02T12:43:43;102303.66;;;10.21;100.00
24788;BME280;12883;52.662;5.196;2023-02-02T12:51:54;102312.94;;;10.17;100.00
24788;BME280;12883;52.662;5.196;2023-02-02T12:57:21;102286.44;;;10.17;100.00
24788;BME280;12883;52.662;5.196;2023-02-02T13:02:34;102285.44;;;10.18;100.00
24788;BME280;12883;52.662;5.196;2023-02-02T13:07:47;102295.41;;;10.24;100.00
24788;BME280;12883;52.662;5.196;2023-02-02T13:10:38;102299.88;;;10.23;100.00
24788;BME280;12883;52.662;5.196;2023-02-02T13:13:11;102292.41;;;10.27;100.00
24788;BME280;12883;52.662;5.196;2023-02-02T13:15:45;102298.44;;;10.37;100.00
24788;BME280;12883;52.662;5.196;2023-02-02T13:18:22;102289.78;;;10.35;100.00
24788;BME280;12883;52.662;5.196;2023-02-02T13:20:53;102292.28;;;10.36;100.00
24788;BME280;12883;52.662;5.196;2023-02-02T13:26:20;102292.31;;;10.44;100.00
24788;BME280;12883;52.662;5.196;2023-02-02T13:29:01;102291.31;;;10.45;100.00
24788;BME280;12883;52.662;5.196;2023-02-02T13:31:32;102288.84;;;10.52;100.00
24788;BME280;12883;52.662;5.196;2023-02-02T13:36:38;102286.84;;;10.46;100.00
24788;BME280;12883;52.662;5.196;2023-02-02T13:39:32;102280.19;;;10.42;100.00
24788;BME280;12883;52.662;5.196;2023-02-02T13:42:00;102279.53;;;10.48;100.00
24788;BME280;12883;52.662;5.196;2023-02-02T13:44:34;102284.19;;;10.54;100.00
24788;BME280;12883;52.662;5.196;2023-02-02T13:47:08;102289.34;;;10.47;100.00
24788;BME280;12883;52.662;5.196;2023-02-02T13:49:44;102307.06;;;10.47;100.00
24788;BME280;12883;52.662;5.196;2023-02-02T13:58:21;102282.47;;;10.29;100.00
24788;BME280;12883;52.662;5.196;2023-02-02T14:00:58;102275.50;;;10.28;100.00
24788;BME280;12883;52.662;5.196;2023-02-02T14:03:41;102295.44;;;10.32;100.00
24788;BME280;12883;52.662;5.196;2023-02-02T14:08:35;102269.88;;;10.23;100.00
24788;BME280;12883;52.662;5.196;2023-02-02T14:11:04;102295.19;;;10.17;100.00
24788;BME280;12883;52.662;5.196;2023-02-02T14:13:36;102275.97;;;10.15;100.00
24788;BME280;12883;52.662;5.196;2023-02-02T14:19:00;102271.44;;;10.08;100.00
24788;BME280;12883;52.662;5.196;2023-02-02T14:23:59;102292.38;;;10.11;100.00
24788;BME280;12883;52.662;5.196;2023-02-02T14:26:47;102282.91;;;10.08;100.00
24788;BME280;12883;52.662;5.196;2023-02-02T14:34:37;102291.53;;;10.10;100.00
24788;BME280;12883;52.662;5.196;2023-02-02T14:39:59;102304.19;;;9.99;100.00
24788;BME280;12883;52.662;5.196;2023-02-02T14:45:41;102294.50;;;10.07;100.00
24788;BME280;12883;52.662;5.196;2023-02-02T14:48:25;102300.97;;;10.05;100.00
24788;BME280;12883;52.662;5.196;2023-02-02T14:50:59;102294.81;;;10.04;100.00
24788;BME280;12883;52.662;5.196;2023-02-02T14:53:32;102300.41;;;10.01;100.00
24788;BME280;12883;52.662;5.196;2023-02-02T14:56:08;102298.06;;;9.98;100.00
24788;BME280;12883;52.662;5.196;2023-02-02T14:58:43;102285.91;;;9.88;100.00